sensor_id;sensor_type;location;lat;lon;timestamp;P1;durP1;ratioP1;P2;durP2;ratioP2
67902;SDS011;54708;43.612;1.568;2023-07-20T00:01:05;13.23;;;5.43;;
67902;SDS011;54708;43.612;1.568;2023-07-20T00:03:31;10.10;;;5.88;;
67902;SDS011;54708;43.612;1.568;2023-07-20T00:05:56;9.95;;;6.30;;
67902;SDS011;54708;43.612;1.568;2023-07-20T00:08:21;8.95;;;6.22;;
67902;SDS011;54708;43.612;1.568;2023-07-20T00:10:47;10.77;;;6.25;;
67902;SDS011;54708;43.612;1.568;2023-07-20T00:13:12;12.32;;;6.20;;
67902;SDS011;54708;43.612;1.568;2023-07-20T00:15:38;8.98;;;5.68;;
67902;SDS011;54708;43.612;1.568;2023-07-20T00:18:04;9.57;;;5.60;;
67902;SDS011;54708;43.612;1.568;2023-07-20T00:20:30;14.30;;;5.53;;
67902;SDS011;54708;43.612;1.568;2023-07-20T00:22:55;8.48;;;5.35;;
67902;SDS011;54708;43.612;1.568;2023-07-20T00:25:22;13.02;;;5.75;;
67902;SDS011;54708;43.612;1.568;2023-07-20T00:27:48;11.52;;;6.38;;
67902;SDS011;54708;43.612;1.568;2023-07-20T00:30:13;9.10;;;5.72;;
67902;SDS011;54708;43.612;1.568;2023-07-20T00:32:39;9.65;;;5.43;;
67902;SDS011;54708;43.612;1.568;2023-07-20T00:35:04;10.25;;;5.57;;
67902;SDS011;54708;43.612;1.568;2023-07-20T00:37:30;11.93;;;6.43;;
67902;SDS011;54708;43.612;1.568;2023-07-20T00:39:56;8.23;;;4.72;;
67902;SDS011;54708;43.612;1.568;2023-07-20T00:42:21;8.75;;;5.30;;
67902;SDS011;54708;43.612;1.568;2023-07-20T00:44:47;10.10;;;5.93;;
67902;SDS011;54708;43.612;1.568;2023-07-20T00:47:12;11.88;;;5.75;;
67902;SDS011;54708;43.612;1.568;2023-07-20T00:49:38;10.43;;;5.93;;
67902;SDS011;54708;43.612;1.568;2023-07-20T00:52:04;9.05;;;4.93;;
67902;SDS011;54708;43.612;1.568;2023-07-20T00:54:31;10.30;;;5.22;;
67902;SDS011;54708;43.612;1.568;2023-07-20T00:56:57;6.32;;;4.88;;
67902;SDS011;54708;43.612;1.568;2023-07-20T00:59:23;9.48;;;5.18;;
67902;SDS011;54708;43.612;1.568;2023-07-20T01:01:49;8.80;;;5.28;;
67902;SDS011;54708;43.612;1.568;2023-07-20T01:04:14;10.73;;;5.60;;
67902;SDS011;54708;43.612;1.568;2023-07-20T01:09:18;12.50;;;6.38;;
67902;SDS011;54708;43.612;1.568;2023-07-20T01:14:23;12.70;;;5.35;;
67902;SDS011;54708;43.612;1.568;2023-07-20T01:16:49;8.45;;;5.93;;
67902;SDS011;54708;43.612;1.568;2023-07-20T01:19:17;8.48;;;5.00;;
67902;SDS011;54708;43.612;1.568;2023-07-20T01:21:45;12.90;;;6.05;;
67902;SDS011;54708;43.612;1.568;2023-07-20T01:32:32;11.73;;;5.38;;
67902;SDS011;54708;43.612;1.568;2023-07-20T01:34:58;10.77;;;5.40;;
67902;SDS011;54708;43.612;1.568;2023-07-20T01:37:25;11.10;;;5.82;;
67902;SDS011;54708;43.612;1.568;2023-07-20T01:39:53;9.45;;;5.63;;
67902;SDS011;54708;43.612;1.568;2023-07-20T01:42:22;7.60;;;4.70;;
67902;SDS011;54708;43.612;1.568;2023-07-20T01:44:51;11.05;;;5.60;;
67902;SDS011;54708;43.612;1.568;2023-07-20T01:47:17;9.35;;;5.47;;
67902;SDS011;54708;43.612;1.568;2023-07-20T01:49:43;9.07;;;5.57;;
67902;SDS011;54708;43.612;1.568;2023-07-20T01:52:08;11.10;;;5.40;;
67902;SDS011;54708;43.612;1.568;2023-07-20T01:54:33;9.68;;;5.60;;
67902;SDS011;54708;43.612;1.568;2023-07-20T01:56:59;14.15;;;6.00;;
67902;SDS011;54708;43.612;1.568;2023-07-20T01:59:24;8.65;;;5.25;;
67902;SDS011;54708;43.612;1.568;2023-07-20T02:01:49;9.85;;;6.50;;
67902;SDS011;54708;43.612;1.568;2023-07-20T02:04:15;14.48;;;5.97;;
67902;SDS011;54708;43.612;1.568;2023-07-20T02:06:40;8.98;;;5.13;;
67902;SDS011;54708;43.612;1.568;2023-07-20T02:09:06;8.45;;;5.90;;
67902;SDS011;54708;43.612;1.568;2023-07-20T02:11:31;7.05;;;5.45;;
67902;SDS011;54708;43.612;1.568;2023-07-20T02:13:56;8.55;;;5.68;;
67902;SDS011;54708;43.612;1.568;2023-07-20T02:16:22;8.70;;;5.95;;
67902;SDS011;54708;43.612;1.568;2023-07-20T02:18:47;10.05;;;6.45;;
67902;SDS011;54708;43.612;1.568;2023-07-20T02:21:12;8.57;;;5.30;;
67902;SDS011;54708;43.612;1.568;2023-07-20T02:23:38;9.23;;;5.55;;
67902;SDS011;54708;43.612;1.568;2023-07-20T02:26:03;9.25;;;5.88;;
67902;SDS011;54708;43.612;1.568;2023-07-20T02:28:28;11.77;;;6.07;;
67902;SDS011;54708;43.612;1.568;2023-07-20T02:30:54;10.20;;;5.68;;
67902;SDS011;54708;43.612;1.568;2023-07-20T02:33:19;11.90;;;6.60;;
67902;SDS011;54708;43.612;1.568;2023-07-20T02:35:45;8.48;;;5.60;;
67902;SDS011;54708;43.612;1.568;2023-07-20T02:38:11;11.98;;;5.35;;
67902;SDS011;54708;43.612;1.568;2023-07-20T02:40:36;11.50;;;5.63;;
67902;SDS011;54708;43.612;1.568;2023-07-20T02:43:01;14.55;;;5.93;;
67902;SDS011;54708;43.612;1.568;2023-07-20T02:45:27;7.75;;;5.40;;
67902;SDS011;54708;43.612;1.568;2023-07-20T02:47:52;9.52;;;6.18;;
67902;SDS011;54708;43.612;1.568;2023-07-20T02:50:18;15.10;;;5.60;;
67902;SDS011;54708;43.612;1.568;2023-07-20T02:52:43;14.68;;;6.55;;
67902;SDS011;54708;43.612;1.568;2023-07-20T02:55:08;8.90;;;5.90;;
67902;SDS011;54708;43.612;1.568;2023-07-20T02:57:34;10.60;;;6.15;;
67902;SDS011;54708;43.612;1.568;2023-07-20T02:59:59;11.35;;;5.65;;
67902;SDS011;54708;43.612;1.568;2023-07-20T03:02:25;11.18;;;5.70;;
67902;SDS011;54708;43.612;1.568;2023-07-20T03:04:50;11.35;;;5.85;;
67902;SDS011;54708;43.612;1.568;2023-07-20T03:07:15;11.70;;;5.75;;
67902;SDS011;54708;43.612;1.568;2023-07-20T03:09:41;12.82;;;5.65;;
67902;SDS011;54708;43.612;1.568;2023-07-20T03:12:06;10.63;;;5.78;;
67902;SDS011;54708;43.612;1.568;2023-07-20T03:14:32;11.10;;;6.07;;
67902;SDS011;54708;43.612;1.568;2023-07-20T03:16:58;9.75;;;5.57;;
67902;SDS011;54708;43.612;1.568;2023-07-20T03:19:23;8.23;;;5.43;;
67902;SDS011;54708;43.612;1.568;2023-07-20T03:21:48;12.00;;;6.22;;
67902;SDS011;54708;43.612;1.568;2023-07-20T03:24:14;10.48;;;6.18;;
67902;SDS011;54708;43.612;1.568;2023-07-20T03:26:39;10.50;;;5.65;;
67902;SDS011;54708;43.612;1.568;2023-07-20T03:29:05;11.00;;;5.30;;
67902;SDS011;54708;43.612;1.568;2023-07-20T03:31:31;6.68;;;5.10;;
67902;SDS011;54708;43.612;1.568;2023-07-20T03:33:57;12.65;;;6.18;;
67902;SDS011;54708;43.612;1.568;2023-07-20T03:36:22;8.98;;;6.18;;
67902;SDS011;54708;43.612;1.568;2023-07-20T03:38:47;11.63;;;6.20;;
67902;SDS011;54708;43.612;1.568;2023-07-20T03:41:13;9.35;;;5.50;;
67902;SDS011;54708;43.612;1.568;2023-07-20T03:43:40;14.23;;;5.82;;
67902;SDS011;54708;43.612;1.568;2023-07-20T03:46:06;8.60;;;5.85;;
67902;SDS011;54708;43.612;1.568;2023-07-20T03:48:31;12.05;;;5.20;;
67902;SDS011;54708;43.612;1.568;2023-07-20T03:50:57;6.75;;;4.82;;
67902;SDS011;54708;43.612;1.568;2023-07-20T03:53:23;10.93;;;5.80;;
67902;SDS011;54708;43.612;1.568;2023-07-20T03:55:49;8.82;;;6.00;;
67902;SDS011;54708;43.612;1.568;2023-07-20T03:58:16;8.20;;;5.25;;
67902;SDS011;54708;43.612;1.568;2023-07-20T04:00:45;11.70;;;6.07;;
67902;SDS011;54708;43.612;1.568;2023-07-20T04:03:11;10.10;;;5.75;;
67902;SDS011;54708;43.612;1.568;2023-07-20T04:05:37;10.82;;;5.97;;
67902;SDS011;54708;43.612;1.568;2023-07-20T04:08:03;15.63;;;5.60;;
67902;SDS011;54708;43.612;1.568;2023-07-20T04:10:28;8.50;;;5.10;;
67902;SDS011;54708;43.612;1.568;2023-07-20T04:12:54;10.30;;;6.43;;
67902;SDS011;54708;43.612;1.568;2023-07-20T04:15:20;13.35;;;6.00;;
67902;SDS011;54708;43.612;1.568;2023-07-20T04:17:45;8.70;;;6.00;;
67902;SDS011;54708;43.612;1.568;2023-07-20T04:20:11;9.60;;;6.00;;
67902;SDS011;54708;43.612;1.568;2023-07-20T04:22:36;10.93;;;5.80;;
67902;SDS011;54708;43.612;1.568;2023-07-20T04:25:02;7.93;;;5.13;;
67902;SDS011;54708;43.612;1.568;2023-07-20T04:27:28;9.52;;;5.90;;
67902;SDS011;54708;43.612;1.568;2023-07-20T04:29:54;9.93;;;5.70;;
67902;SDS011;54708;43.612;1.568;2023-07-20T04:32:19;10.23;;;5.80;;
67902;SDS011;54708;43.612;1.568;2023-07-20T04:34:44;9.18;;;6.47;;
67902;SDS011;54708;43.612;1.568;2023-07-20T04:37:10;10.82;;;5.72;;
67902;SDS011;54708;43.612;1.568;2023-07-20T04:39:35;10.00;;;4.95;;
67902;SDS011;54708;43.612;1.568;2023-07-20T04:42:00;9.95;;;5.97;;
67902;SDS011;54708;43.612;1.568;2023-07-20T04:44:26;8.65;;;5.18;;
67902;SDS011;54708;43.612;1.568;2023-07-20T04:46:51;10.75;;;5.93;;
67902;SDS011;54708;43.612;1.568;2023-07-20T04:49:16;9.05;;;5.30;;
67902;SDS011;54708;43.612;1.568;2023-07-20T04:51:42;6.45;;;5.32;;
67902;SDS011;54708;43.612;1.568;2023-07-20T04:54:07;12.65;;;5.93;;
67902;SDS011;54708;43.612;1.568;2023-07-20T04:56:33;7.97;;;5.88;;
67902;SDS011;54708;43.612;1.568;2023-07-20T04:58:58;9.57;;;5.97;;
67902;SDS011;54708;43.612;1.568;2023-07-20T05:01:24;10.10;;;6.72;;
67902;SDS011;54708;43.612;1.568;2023-07-20T05:03:49;11.25;;;6.68;;
67902;SDS011;54708;43.612;1.568;2023-07-20T05:06:15;12.88;;;7.60;;
67902;SDS011;54708;43.612;1.568;2023-07-20T05:08:40;11.77;;;6.63;;
67902;SDS011;54708;43.612;1.568;2023-07-20T05:11:06;14.27;;;7.18;;
67902;SDS011;54708;43.612;1.568;2023-07-20T05:13:32;14.50;;;7.75;;
67902;SDS011;54708;43.612;1.568;2023-07-20T05:15:58;14.60;;;7.80;;
67902;SDS011;54708;43.612;1.568;2023-07-20T05:18:23;14.70;;;7.13;;
67902;SDS011;54708;43.612;1.568;2023-07-20T05:20:49;13.95;;;7.35;;
67902;SDS011;54708;43.612;1.568;2023-07-20T05:23:16;12.32;;;7.38;;
67902;SDS011;54708;43.612;1.568;2023-07-20T05:25:42;11.65;;;7.20;;
67902;SDS011;54708;43.612;1.568;2023-07-20T05:28:08;9.30;;;6.85;;
67902;SDS011;54708;43.612;1.568;2023-07-20T05:30:33;10.40;;;5.95;;
67902;SDS011;54708;43.612;1.568;2023-07-20T05:32:58;11.27;;;6.50;;
67902;SDS011;54708;43.612;1.568;2023-07-20T05:35:25;10.98;;;5.68;;
67902;SDS011;54708;43.612;1.568;2023-07-20T05:37:51;10.55;;;5.38;;
67902;SDS011;54708;43.612;1.568;2023-07-20T05:40:16;7.15;;;5.25;;
67902;SDS011;54708;43.612;1.568;2023-07-20T05:42:44;8.85;;;5.20;;
67902;SDS011;54708;43.612;1.568;2023-07-20T05:45:11;7.93;;;5.20;;
67902;SDS011;54708;43.612;1.568;2023-07-20T05:47:37;7.93;;;5.18;;
67902;SDS011;54708;43.612;1.568;2023-07-20T05:50:02;10.25;;;5.20;;
67902;SDS011;54708;43.612;1.568;2023-07-20T05:52:28;8.13;;;6.07;;
67902;SDS011;54708;43.612;1.568;2023-07-20T05:54:54;8.95;;;5.25;;
67902;SDS011;54708;43.612;1.568;2023-07-20T05:57:20;8.63;;;5.20;;
67902;SDS011;54708;43.612;1.568;2023-07-20T05:59:45;8.27;;;5.55;;
67902;SDS011;54708;43.612;1.568;2023-07-20T06:02:11;9.27;;;5.90;;
67902;SDS011;54708;43.612;1.568;2023-07-20T06:04:37;8.50;;;5.30;;
67902;SDS011;54708;43.612;1.568;2023-07-20T06:07:03;8.57;;;4.43;;
67902;SDS011;54708;43.612;1.568;2023-07-20T06:09:28;8.55;;;4.65;;
67902;SDS011;54708;43.612;1.568;2023-07-20T06:11:54;10.35;;;5.13;;
67902;SDS011;54708;43.612;1.568;2023-07-20T06:14:20;8.90;;;5.03;;
67902;SDS011;54708;43.612;1.568;2023-07-20T06:16:45;5.45;;;4.55;;
67902;SDS011;54708;43.612;1.568;2023-07-20T06:19:10;7.50;;;4.68;;
67902;SDS011;54708;43.612;1.568;2023-07-20T06:21:37;8.48;;;4.78;;
67902;SDS011;54708;43.612;1.568;2023-07-20T06:24:02;7.50;;;4.53;;
67902;SDS011;54708;43.612;1.568;2023-07-20T06:26:28;6.90;;;4.07;;
67902;SDS011;54708;43.612;1.568;2023-07-20T06:28:55;9.75;;;4.78;;
67902;SDS011;54708;43.612;1.568;2023-07-20T06:31:21;7.32;;;4.22;;
67902;SDS011;54708;43.612;1.568;2023-07-20T06:33:46;11.07;;;4.10;;
67902;SDS011;54708;43.612;1.568;2023-07-20T06:36:11;9.68;;;4.55;;
67902;SDS011;54708;43.612;1.568;2023-07-20T06:38:37;6.93;;;4.22;;
67902;SDS011;54708;43.612;1.568;2023-07-20T06:41:02;10.70;;;3.95;;
67902;SDS011;54708;43.612;1.568;2023-07-20T06:43:28;5.65;;;3.47;;
67902;SDS011;54708;43.612;1.568;2023-07-20T06:45:53;6.20;;;3.85;;
67902;SDS011;54708;43.612;1.568;2023-07-20T06:48:19;4.32;;;3.20;;
67902;SDS011;54708;43.612;1.568;2023-07-20T06:50:44;6.43;;;4.03;;
67902;SDS011;54708;43.612;1.568;2023-07-20T06:53:10;10.57;;;3.83;;
67902;SDS011;54708;43.612;1.568;2023-07-20T06:55:35;10.10;;;3.80;;
67902;SDS011;54708;43.612;1.568;2023-07-20T06:58:00;7.05;;;3.88;;
67902;SDS011;54708;43.612;1.568;2023-07-20T07:00:26;5.68;;;3.25;;
67902;SDS011;54708;43.612;1.568;2023-07-20T07:02:51;6.30;;;3.80;;
67902;SDS011;54708;43.612;1.568;2023-07-20T07:05:17;6.47;;;4.10;;
67902;SDS011;54708;43.612;1.568;2023-07-20T07:07:43;10.63;;;3.50;;
67902;SDS011;54708;43.612;1.568;2023-07-20T07:10:08;12.15;;;4.32;;
67902;SDS011;54708;43.612;1.568;2023-07-20T07:12:34;6.85;;;2.92;;
67902;SDS011;54708;43.612;1.568;2023-07-20T07:15:00;3.80;;;2.97;;
67902;SDS011;54708;43.612;1.568;2023-07-20T07:17:28;7.10;;;3.78;;
67902;SDS011;54708;43.612;1.568;2023-07-20T07:19:54;6.88;;;3.53;;
67902;SDS011;54708;43.612;1.568;2023-07-20T07:22:21;6.97;;;3.17;;
67902;SDS011;54708;43.612;1.568;2023-07-20T07:24:47;6.25;;;3.65;;
67902;SDS011;54708;43.612;1.568;2023-07-20T07:27:12;3.92;;;3.05;;
67902;SDS011;54708;43.612;1.568;2023-07-20T07:29:37;3.80;;;3.03;;
67902;SDS011;54708;43.612;1.568;2023-07-20T07:32:03;8.20;;;3.88;;
67902;SDS011;54708;43.612;1.568;2023-07-20T07:34:29;4.03;;;2.88;;
67902;SDS011;54708;43.612;1.568;2023-07-20T07:36:54;2.90;;;2.53;;
67902;SDS011;54708;43.612;1.568;2023-07-20T07:39:20;8.80;;;3.55;;
67902;SDS011;54708;43.612;1.568;2023-07-20T07:41:45;7.28;;;3.28;;
67902;SDS011;54708;43.612;1.568;2023-07-20T07:44:10;5.78;;;2.78;;
67902;SDS011;54708;43.612;1.568;2023-07-20T07:46:36;5.97;;;2.85;;
67902;SDS011;54708;43.612;1.568;2023-07-20T07:49:02;7.47;;;2.60;;
67902;SDS011;54708;43.612;1.568;2023-07-20T07:51:27;7.80;;;2.33;;
67902;SDS011;54708;43.612;1.568;2023-07-20T07:53:52;4.15;;;2.70;;
67902;SDS011;54708;43.612;1.568;2023-07-20T07:56:18;8.07;;;3.00;;
67902;SDS011;54708;43.612;1.568;2023-07-20T07:58:47;5.03;;;1.95;;
67902;SDS011;54708;43.612;1.568;2023-07-20T08:01:16;4.55;;;1.70;;
67902;SDS011;54708;43.612;1.568;2023-07-20T08:03:43;4.63;;;2.10;;
67902;SDS011;54708;43.612;1.568;2023-07-20T08:06:12;4.93;;;2.00;;
67902;SDS011;54708;43.612;1.568;2023-07-20T08:08:37;8.48;;;2.65;;
67902;SDS011;54708;43.612;1.568;2023-07-20T08:11:03;7.13;;;2.20;;
67902;SDS011;54708;43.612;1.568;2023-07-20T08:13:29;3.33;;;2.45;;
67902;SDS011;54708;43.612;1.568;2023-07-20T08:15:55;4.78;;;2.10;;
67902;SDS011;54708;43.612;1.568;2023-07-20T08:18:20;2.72;;;2.03;;
67902;SDS011;54708;43.612;1.568;2023-07-20T08:20:46;4.95;;;2.85;;
67902;SDS011;54708;43.612;1.568;2023-07-20T08:23:12;7.30;;;1.88;;
67902;SDS011;54708;43.612;1.568;2023-07-20T08:25:38;3.72;;;2.42;;
67902;SDS011;54708;43.612;1.568;2023-07-20T08:28:08;2.20;;;1.83;;
67902;SDS011;54708;43.612;1.568;2023-07-20T08:30:45;4.43;;;2.35;;
67902;SDS011;54708;43.612;1.568;2023-07-20T08:33:21;1.95;;;1.63;;
67902;SDS011;54708;43.612;1.568;2023-07-20T08:35:48;4.80;;;2.58;;
67902;SDS011;54708;43.612;1.568;2023-07-20T08:38:13;2.70;;;2.22;;
67902;SDS011;54708;43.612;1.568;2023-07-20T08:40:40;5.93;;;2.47;;
67902;SDS011;54708;43.612;1.568;2023-07-20T08:43:12;4.03;;;3.25;;
67902;SDS011;54708;43.612;1.568;2023-07-20T08:45:39;4.78;;;2.22;;
67902;SDS011;54708;43.612;1.568;2023-07-20T08:48:05;4.10;;;2.47;;
67902;SDS011;54708;43.612;1.568;2023-07-20T08:50:31;5.30;;;2.92;;
67902;SDS011;54708;43.612;1.568;2023-07-20T08:52:58;5.63;;;1.90;;
67902;SDS011;54708;43.612;1.568;2023-07-20T08:55:24;7.28;;;3.00;;
67902;SDS011;54708;43.612;1.568;2023-07-20T08:57:51;2.70;;;1.77;;
67902;SDS011;54708;43.612;1.568;2023-07-20T09:00:19;2.53;;;2.00;;
67902;SDS011;54708;43.612;1.568;2023-07-20T09:02:45;2.47;;;1.95;;
67902;SDS011;54708;43.612;1.568;2023-07-20T09:05:11;2.38;;;1.70;;
67902;SDS011;54708;43.612;1.568;2023-07-20T09:07:39;6.07;;;2.40;;
67902;SDS011;54708;43.612;1.568;2023-07-20T09:10:05;4.78;;;2.33;;
67902;SDS011;54708;43.612;1.568;2023-07-20T09:12:41;1.95;;;1.77;;
67902;SDS011;54708;43.612;1.568;2023-07-20T09:15:07;2.78;;;1.98;;
67902;SDS011;54708;43.612;1.568;2023-07-20T09:17:33;4.82;;;1.90;;
67902;SDS011;54708;43.612;1.568;2023-07-20T09:20:01;3.40;;;2.50;;
67902;SDS011;54708;43.612;1.568;2023-07-20T09:22:30;4.70;;;2.50;;
67902;SDS011;54708;43.612;1.568;2023-07-20T09:24:56;5.05;;;2.15;;
67902;SDS011;54708;43.612;1.568;2023-07-20T09:27:21;3.78;;;2.15;;
67902;SDS011;54708;43.612;1.568;2023-07-20T09:29:50;3.80;;;2.60;;
67902;SDS011;54708;43.612;1.568;2023-07-20T09:32:20;3.60;;;2.38;;
67902;SDS011;54708;43.612;1.568;2023-07-20T09:34:46;5.10;;;1.85;;
67902;SDS011;54708;43.612;1.568;2023-07-20T09:37:12;3.60;;;2.03;;
67902;SDS011;54708;43.612;1.568;2023-07-20T09:39:44;2.95;;;2.25;;
67902;SDS011;54708;43.612;1.568;2023-07-20T09:42:11;3.40;;;2.35;;
67902;SDS011;54708;43.612;1.568;2023-07-20T09:44:38;4.63;;;2.38;;
67902;SDS011;54708;43.612;1.568;2023-07-20T09:47:04;3.92;;;1.95;;
67902;SDS011;54708;43.612;1.568;2023-07-20T09:49:30;3.58;;;2.45;;
67902;SDS011;54708;43.612;1.568;2023-07-20T09:51:56;2.70;;;1.80;;
67902;SDS011;54708;43.612;1.568;2023-07-20T09:54:23;1.65;;;1.42;;
67902;SDS011;54708;43.612;1.568;2023-07-20T09:56:50;2.72;;;2.00;;
67902;SDS011;54708;43.612;1.568;2023-07-20T09:59:16;2.97;;;1.90;;
67902;SDS011;54708;43.612;1.568;2023-07-20T10:01:41;3.65;;;1.80;;
67902;SDS011;54708;43.612;1.568;2023-07-20T10:04:08;4.55;;;2.35;;
67902;SDS011;54708;43.612;1.568;2023-07-20T10:06:34;4.25;;;1.98;;
67902;SDS011;54708;43.612;1.568;2023-07-20T10:09:01;3.15;;;2.33;;
67902;SDS011;54708;43.612;1.568;2023-07-20T10:11:31;2.80;;;1.88;;
67902;SDS011;54708;43.612;1.568;2023-07-20T10:14:00;6.20;;;2.38;;
67902;SDS011;54708;43.612;1.568;2023-07-20T10:16:36;4.38;;;1.85;;
67902;SDS011;54708;43.612;1.568;2023-07-20T10:19:11;4.85;;;2.40;;
67902;SDS011;54708;43.612;1.568;2023-07-20T10:21:42;4.32;;;2.13;;
67902;SDS011;54708;43.612;1.568;2023-07-20T10:24:10;2.50;;;2.30;;
67902;SDS011;54708;43.612;1.568;2023-07-20T10:26:36;4.38;;;1.88;;
67902;SDS011;54708;43.612;1.568;2023-07-20T10:29:02;4.65;;;2.20;;
67902;SDS011;54708;43.612;1.568;2023-07-20T10:31:28;4.30;;;2.55;;
67902;SDS011;54708;43.612;1.568;2023-07-20T10:33:54;2.55;;;2.10;;
67902;SDS011;54708;43.612;1.568;2023-07-20T10:36:26;2.85;;;2.08;;
67902;SDS011;54708;43.612;1.568;2023-07-20T10:38:53;4.65;;;2.15;;
67902;SDS011;54708;43.612;1.568;2023-07-20T10:41:21;2.42;;;2.20;;
67902;SDS011;54708;43.612;1.568;2023-07-20T10:43:50;4.15;;;2.25;;
67902;SDS011;54708;43.612;1.568;2023-07-20T10:49:00;2.85;;;2.10;;
67902;SDS011;54708;43.612;1.568;2023-07-20T10:51:27;4.20;;;2.33;;
67902;SDS011;54708;43.612;1.568;2023-07-20T10:53:53;3.20;;;1.98;;
67902;SDS011;54708;43.612;1.568;2023-07-20T10:56:22;2.80;;;2.03;;
67902;SDS011;54708;43.612;1.568;2023-07-20T10:58:48;2.28;;;2.05;;
67902;SDS011;54708;43.612;1.568;2023-07-20T11:01:14;3.00;;;2.10;;
67902;SDS011;54708;43.612;1.568;2023-07-20T11:03:41;2.63;;;1.70;;
67902;SDS011;54708;43.612;1.568;2023-07-20T11:09:12;3.50;;;2.15;;
67902;SDS011;54708;43.612;1.568;2023-07-20T11:11:41;8.27;;;2.38;;
67902;SDS011;54708;43.612;1.568;2023-07-20T11:14:09;5.85;;;2.25;;
67902;SDS011;54708;43.612;1.568;2023-07-20T11:16:59;8.75;;;2.88;;
67902;SDS011;54708;43.612;1.568;2023-07-20T11:19:36;4.35;;;2.35;;
67902;SDS011;54708;43.612;1.568;2023-07-20T11:22:01;3.80;;;2.47;;
67902;SDS011;54708;43.612;1.568;2023-07-20T11:24:32;5.32;;;2.25;;
67902;SDS011;54708;43.612;1.568;2023-07-20T11:26:57;3.17;;;1.80;;
67902;SDS011;54708;43.612;1.568;2023-07-20T11:29:23;6.50;;;2.15;;
67902;SDS011;54708;43.612;1.568;2023-07-20T11:31:50;2.58;;;2.17;;
67902;SDS011;54708;43.612;1.568;2023-07-20T11:34:16;2.60;;;2.05;;
67902;SDS011;54708;43.612;1.568;2023-07-20T11:36:49;4.45;;;1.67;;
67902;SDS011;54708;43.612;1.568;2023-07-20T11:39:16;2.17;;;1.98;;
67902;SDS011;54708;43.612;1.568;2023-07-20T11:41:48;4.22;;;2.25;;
67902;SDS011;54708;43.612;1.568;2023-07-20T11:44:15;2.90;;;1.92;;
67902;SDS011;54708;43.612;1.568;2023-07-20T11:46:41;7.10;;;2.13;;
67902;SDS011;54708;43.612;1.568;2023-07-20T11:49:08;2.50;;;1.95;;
67902;SDS011;54708;43.612;1.568;2023-07-20T11:51:34;2.55;;;1.90;;
67902;SDS011;54708;43.612;1.568;2023-07-20T11:54:00;4.20;;;1.98;;
67902;SDS011;54708;43.612;1.568;2023-07-20T11:56:26;4.55;;;2.15;;
67902;SDS011;54708;43.612;1.568;2023-07-20T11:58:55;2.60;;;2.10;;
67902;SDS011;54708;43.612;1.568;2023-07-20T12:01:24;8.32;;;2.33;;
67902;SDS011;54708;43.612;1.568;2023-07-20T12:03:51;2.45;;;1.85;;
67902;SDS011;54708;43.612;1.568;2023-07-20T12:06:16;4.05;;;2.15;;
67902;SDS011;54708;43.612;1.568;2023-07-20T12:08:42;2.72;;;2.00;;
67902;SDS011;54708;43.612;1.568;2023-07-20T12:11:09;2.97;;;1.90;;
67902;SDS011;54708;43.612;1.568;2023-07-20T12:13:44;3.22;;;1.85;;
67902;SDS011;54708;43.612;1.568;2023-07-20T12:16:16;3.20;;;1.88;;
67902;SDS011;54708;43.612;1.568;2023-07-20T12:18:42;3.97;;;2.10;;
67902;SDS011;54708;43.612;1.568;2023-07-20T12:21:08;3.08;;;1.92;;
67902;SDS011;54708;43.612;1.568;2023-07-20T12:23:38;2.65;;;1.60;;
67902;SDS011;54708;43.612;1.568;2023-07-20T12:26:07;3.85;;;1.70;;
67902;SDS011;54708;43.612;1.568;2023-07-20T12:28:35;2.95;;;1.70;;
67902;SDS011;54708;43.612;1.568;2023-07-20T12:31:05;3.97;;;2.08;;
67902;SDS011;54708;43.612;1.568;2023-07-20T12:33:31;4.15;;;1.65;;
67902;SDS011;54708;43.612;1.568;2023-07-20T12:35:56;3.47;;;1.70;;
67902;SDS011;54708;43.612;1.568;2023-07-20T12:38:24;4.43;;;2.00;;
67902;SDS011;54708;43.612;1.568;2023-07-20T12:40:50;3.65;;;1.63;;
67902;SDS011;54708;43.612;1.568;2023-07-20T12:43:15;2.22;;;2.00;;
67902;SDS011;54708;43.612;1.568;2023-07-20T12:45:41;3.03;;;2.33;;
67902;SDS011;54708;43.612;1.568;2023-07-20T12:48:07;2.35;;;1.92;;
67902;SDS011;54708;43.612;1.568;2023-07-20T12:50:32;7.03;;;2.20;;
67902;SDS011;54708;43.612;1.568;2023-07-20T12:52:58;2.83;;;1.80;;
67902;SDS011;54708;43.612;1.568;2023-07-20T12:55:23;2.38;;;1.60;;
67902;SDS011;54708;43.612;1.568;2023-07-20T12:57:49;2.58;;;2.03;;
67902;SDS011;54708;43.612;1.568;2023-07-20T13:00:14;5.25;;;2.40;;
67902;SDS011;54708;43.612;1.568;2023-07-20T13:02:41;2.40;;;2.17;;
67902;SDS011;54708;43.612;1.568;2023-07-20T13:05:06;1.90;;;1.80;;
67902;SDS011;54708;43.612;1.568;2023-07-20T13:07:33;3.42;;;1.83;;
67902;SDS011;54708;43.612;1.568;2023-07-20T13:09:59;2.65;;;1.95;;
67902;SDS011;54708;43.612;1.568;2023-07-20T13:12:26;6.05;;;2.03;;
67902;SDS011;54708;43.612;1.568;2023-07-20T13:14:52;4.55;;;1.75;;
67902;SDS011;54708;43.612;1.568;2023-07-20T13:17:17;3.97;;;1.65;;
67902;SDS011;54708;43.612;1.568;2023-07-20T13:19:43;5.55;;;2.17;;
67902;SDS011;54708;43.612;1.568;2023-07-20T13:22:08;4.97;;;1.73;;
67902;SDS011;54708;43.612;1.568;2023-07-20T13:24:33;5.28;;;2.28;;
67902;SDS011;54708;43.612;1.568;2023-07-20T13:26:59;5.93;;;2.10;;
67902;SDS011;54708;43.612;1.568;2023-07-20T13:29:24;3.67;;;2.00;;
67902;SDS011;54708;43.612;1.568;2023-07-20T13:31:50;3.00;;;2.10;;
67902;SDS011;54708;43.612;1.568;2023-07-20T13:34:15;3.92;;;2.20;;
67902;SDS011;54708;43.612;1.568;2023-07-20T13:36:41;4.35;;;2.20;;
67902;SDS011;54708;43.612;1.568;2023-07-20T13:39:06;3.13;;;1.70;;
67902;SDS011;54708;43.612;1.568;2023-07-20T13:41:32;3.90;;;2.15;;
67902;SDS011;54708;43.612;1.568;2023-07-20T13:43:58;3.30;;;2.08;;
67902;SDS011;54708;43.612;1.568;2023-07-20T13:46:23;2.28;;;1.90;;
67902;SDS011;54708;43.612;1.568;2023-07-20T13:48:49;4.82;;;2.17;;
67902;SDS011;54708;43.612;1.568;2023-07-20T13:51:14;3.92;;;2.13;;
67902;SDS011;54708;43.612;1.568;2023-07-20T13:53:39;3.60;;;2.20;;
67902;SDS011;54708;43.612;1.568;2023-07-20T13:56:05;4.28;;;1.67;;
67902;SDS011;54708;43.612;1.568;2023-07-20T13:58:32;6.25;;;1.80;;
67902;SDS011;54708;43.612;1.568;2023-07-20T14:00:57;4.35;;;1.95;;
67902;SDS011;54708;43.612;1.568;2023-07-20T14:03:23;5.97;;;2.00;;
67902;SDS011;54708;43.612;1.568;2023-07-20T14:05:49;3.33;;;2.58;;
67902;SDS011;54708;43.612;1.568;2023-07-20T14:08:15;3.55;;;2.30;;
67902;SDS011;54708;43.612;1.568;2023-07-20T14:10:40;3.05;;;2.63;;
67902;SDS011;54708;43.612;1.568;2023-07-20T14:13:05;2.10;;;1.90;;
67902;SDS011;54708;43.612;1.568;2023-07-20T14:15:31;2.80;;;1.95;;
67902;SDS011;54708;43.612;1.568;2023-07-20T14:17:56;3.10;;;1.70;;
67902;SDS011;54708;43.612;1.568;2023-07-20T14:20:22;3.92;;;2.00;;
67902;SDS011;54708;43.612;1.568;2023-07-20T14:22:47;2.10;;;1.90;;
67902;SDS011;54708;43.612;1.568;2023-07-20T14:25:13;1.83;;;1.60;;
67902;SDS011;54708;43.612;1.568;2023-07-20T14:27:38;3.97;;;1.63;;
67902;SDS011;54708;43.612;1.568;2023-07-20T14:30:04;4.90;;;1.98;;
67902;SDS011;54708;43.612;1.568;2023-07-20T14:32:30;2.05;;;1.70;;
67902;SDS011;54708;43.612;1.568;2023-07-20T14:34:57;6.90;;;2.05;;
67902;SDS011;54708;43.612;1.568;2023-07-20T14:37:23;4.53;;;2.20;;
67902;SDS011;54708;43.612;1.568;2023-07-20T14:39:48;3.13;;;2.17;;
67902;SDS011;54708;43.612;1.568;2023-07-20T14:42:14;3.30;;;2.30;;
67902;SDS011;54708;43.612;1.568;2023-07-20T14:44:39;9.07;;;2.55;;
67902;SDS011;54708;43.612;1.568;2023-07-20T14:47:05;2.13;;;1.90;;
67902;SDS011;54708;43.612;1.568;2023-07-20T14:49:30;3.40;;;1.95;;
67902;SDS011;54708;43.612;1.568;2023-07-20T14:51:56;2.90;;;1.90;;
67902;SDS011;54708;43.612;1.568;2023-07-20T14:54:21;2.65;;;1.80;;
67902;SDS011;54708;43.612;1.568;2023-07-20T14:56:50;2.97;;;1.95;;
67902;SDS011;54708;43.612;1.568;2023-07-20T14:59:17;3.97;;;2.13;;